Time;durP1;ratioP1;P1;durP2;ratioP2;P2;SDS_P1;SDS_P2;PMS_P1;PMS_P2;Temp;Humidity;BMP_temperature;BMP_pressure;BME280_temperature;BME280_humidity;BME280_pressure;Samples;Min_cycle;Max_cycle;Signal;HPM_P1;HPM_P2
2023/01/02 00:00:04;;;;;;;3.90;1.67;;;15.10;99.90;;;;;;7390792;19;20143;-73
2023/01/02 00:02:30;;;;;;;1.63;1.23;;;15.00;99.90;;;;;;7391183;19;20638;-71
2023/01/02 00:04:57;;;;;;;2.05;1.13;;;15.00;99.90;;;;;;7389187;19;20146;-73
2023/01/02 00:07:23;;;;;;;1.83;1.05;;;15.00;99.90;;;;;;7392102;19;20158;-70
2023/01/02 00:09:49;;;;;;;1.40;1.00;;;15.00;99.90;;;;;;7390830;19;20130;-73
2023/01/02 00:12:14;;;;;;;1.95;0.90;;;15.00;99.90;;;;;;7391256;19;20142;-72
2023/01/02 00:14:40;;;;;;;2.17;1.00;;;14.90;99.90;;;;;;7387493;19;20541;-71
2023/01/02 00:17:06;;;;;;;1.98;1.10;;;14.90;99.90;;;;;;7392140;19;20134;-70
2023/01/02 00:19:32;;;;;;;1.63;0.82;;;14.90;99.90;;;;;;7390916;19;20526;-71
2023/01/02 00:21:57;;;;;;;1.90;1.10;;;15.00;99.90;;;;;;7390975;19;20521;-72
2023/01/02 00:24:23;;;;;;;1.33;1.00;;;14.90;99.90;;;;;;7391139;19;20898;-71
2023/01/02 00:26:49;;;;;;;3.83;1.23;;;14.90;99.90;;;;;;7392929;19;20131;-72
2023/01/02 00:29:16;;;;;;;2.88;1.00;;;15.00;99.90;;;;;;7391419;19;20127;-71
2023/01/02 00:31:41;;;;;;;2.00;1.10;;;14.90;99.90;;;;;;7390733;19;20143;-70
2023/01/02 00:34:07;;;;;;;2.63;1.23;;;14.90;99.90;;;;;;7388468;19;20479;-70
2023/01/02 00:36:33;;;;;;;2.05;1.00;;;14.80;99.90;;;;;;7392358;19;20140;-72
2023/01/02 00:38:59;;;;;;;2.95;1.27;;;14.80;99.90;;;;;;7390838;19;20139;-72
2023/01/02 00:41:25;;;;;;;2.10;0.98;;;14.80;99.90;;;;;;7389896;19;20134;-72
2023/01/02 00:43:50;;;;;;;2.08;0.98;;;14.70;99.90;;;;;;7390059;19;20202;-74
2023/01/02 00:46:17;;;;;;;2.70;1.65;;;14.70;99.90;;;;;;7392048;19;20137;-72
2023/01/02 00:48:43;;;;;;;2.30;1.33;;;14.70;99.90;;;;;;7389306;19;20183;-72
2023/01/02 00:51:09;;;;;;;4.47;1.63;;;14.80;99.90;;;;;;7392541;19;20139;-72
2023/01/02 00:53:35;;;;;;;2.42;1.80;;;14.70;99.90;;;;;;7386494;19;20161;-71
2023/01/02 00:56:01;;;;;;;3.55;2.08;;;14.70;99.90;;;;;;7390234;19;20748;-71
2023/01/02 00:58:26;;;;;;;4.15;2.30;;;14.60;99.90;;;;;;7389671;19;20137;-71
2023/01/02 01:00:52;;;;;;;5.28;2.60;;;14.70;99.90;;;;;;7388580;19;20155;-71
2023/01/02 01:03:18;;;;;;;3.20;2.30;;;14.60;99.90;;;;;;7390562;19;20165;-73
2023/01/02 01:05:44;;;;;;;4.07;2.45;;;14.50;99.90;;;;;;7388637;19;20206;-72
2023/01/02 01:08:09;;;;;;;3.25;2.45;;;14.50;99.90;;;;;;7390243;19;20159;-71
2023/01/02 01:10:36;;;;;;;4.10;2.63;;;14.50;99.90;;;;;;7389230;19;20138;-70
2023/01/02 01:13:03;;;;;;;4.32;2.63;;;14.50;99.90;;;;;;7389596;19;20143;-72
2023/01/02 01:15:29;;;;;;;4.40;2.65;;;14.30;99.90;;;;;;7388726;19;20143;-71
2023/01/02 01:17:55;;;;;;;5.30;2.70;;;14.10;99.90;;;;;;7389202;19;20134;-70
2023/01/02 01:20:21;;;;;;;3.95;2.90;;;14.20;99.90;;;;;;7390432;19;20142;-72
2023/01/02 01:22:46;;;;;;;3.92;2.90;;;14.00;99.90;;;;;;7385400;19;20643;-71
2023/01/02 01:25:12;;;;;;;3.92;3.05;;;14.10;99.90;;;;;;7390755;19;20130;-71
2023/01/02 01:27:39;;;;;;;5.45;2.92;;;13.90;99.90;;;;;;7396449;19;20226;-70
2023/01/02 01:30:05;;;;;;;6.60;2.72;;;13.90;99.90;;;;;;7397665;19;20138;-72
2023/01/02 01:32:31;;;;;;;5.28;2.90;;;13.80;99.90;;;;;;7388915;19;20515;-71
2023/01/02 01:34:57;;;;;;;3.70;2.63;;;13.70;99.90;;;;;;7394905;19;20257;-71
2023/01/02 01:37:23;;;;;;;4.95;2.85;;;13.70;99.90;;;;;;7395866;19;20470;-71
2023/01/02 01:39:49;;;;;;;2.95;2.65;;;13.60;99.90;;;;;;7397177;19;20772;-71
2023/01/02 01:42:15;;;;;;;4.13;2.60;;;13.70;99.90;;;;;;7394192;19;20139;-71
2023/01/02 01:44:42;;;;;;;4.97;2.78;;;13.70;99.90;;;;;;7394655;19;20173;-71
2023/01/02 01:47:17;;;;;;;4.40;2.88;;;13.80;99.90;;;;;;7394613;19;20154;-71
2023/01/02 01:49:44;;;;;;;4.60;2.80;;;13.70;99.90;;;;;;7395073;19;20201;-72
2023/01/02 01:52:16;;;;;;;4.70;3.35;;;13.60;99.90;;;;;;7394997;19;20162;-70
2023/01/02 01:54:50;;;;;;;4.72;2.70;;;13.70;99.90;;;;;;7394658;19;20811;-71
2023/01/02 01:57:21;;;;;;;4.60;2.97;;;13.50;99.90;;;;;;7396758;19;20138;-70
2023/01/02 01:59:48;;;;;;;5.50;2.97;;;13.40;99.90;;;;;;7394941;19;20180;-72
2023/01/02 02:02:13;;;;;;;3.38;2.55;;;13.40;99.90;;;;;;7396914;19;20131;-75
2023/01/02 02:04:41;;;;;;;4.50;2.90;;;13.40;99.90;;;;;;7392445;19;20146;-74
2023/01/02 02:07:09;;;;;;;5.32;2.90;;;13.50;99.90;;;;;;7397116;19;20131;-75
2023/01/02 02:09:41;;;;;;;5.47;3.28;;;13.60;99.90;;;;;;7393670;19;20469;-75
2023/01/02 02:12:07;;;;;;;5.90;2.60;;;13.80;99.90;;;;;;7395071;19;20170;-75
2023/01/02 02:14:33;;;;;;;3.47;2.63;;;13.70;99.90;;;;;;7391107;19;20154;-75
2023/01/02 02:17:28;;;;;;;4.03;2.50;;;13.70;99.90;;;;;;7395487;19;20916;-75
2023/01/02 02:20:17;;;;;;;6.00;2.90;;;13.70;99.90;;;;;;7397022;19;20146;-75
2023/01/02 02:22:53;;;;;;;4.15;2.83;;;13.50;99.90;;;;;;7395380;19;20154;-74
2023/01/02 02:25:52;;;;;;;4.97;2.95;;;13.40;99.90;;;;;;7392940;19;20150;-75
2023/01/02 02:28:54;;;;;;;5.90;3.10;;;13.40;99.90;;;;;;7395766;19;20190;-74
2023/01/02 02:31:36;;;;;;;5.32;3.05;;;13.50;99.90;;;;;;7393758;19;20130;-74
2023/01/02 02:34:29;;;;;;;3.63;2.60;;;13.50;99.90;;;;;;7393799;19;20131;-74
2023/01/02 02:37:10;;;;;;;3.75;2.63;;;13.50;99.90;;;;;;7392720;19;20595;-73
2023/01/02 02:39:38;;;;;;;5.53;2.80;;;13.40;99.90;;;;;;7393769;19;20667;-74
2023/01/02 02:42:19;;;;;;;4.25;2.78;;;13.40;99.90;;;;;;7394950;19;20155;-75
2023/01/02 02:45:14;;;;;;;5.35;3.20;;;13.50;99.90;;;;;;7393922;19;20149;-74
2023/01/02 02:48:22;;;;;;;9.35;3.30;;;13.40;99.90;;;;;;7392083;19;20627;-75
2023/01/02 02:50:57;;;;;;;4.93;2.40;;;13.50;99.90;;;;;;7391895;19;20681;-75
2023/01/02 02:53:25;;;;;;;5.38;2.95;;;13.40;99.90;;;;;;7390961;19;20169;-75
2023/01/02 02:55:54;;;;;;;5.93;3.22;;;13.50;99.90;;;;;;7396553;19;20555;-75
2023/01/02 02:58:22;;;;;;;4.47;2.83;;;13.50;99.90;;;;;;7395271;19;20601;-75
2023/01/02 03:00:48;;;;;;;6.28;2.65;;;13.30;99.90;;;;;;7396498;19;20131;-75
2023/01/02 03:03:21;;;;;;;3.78;2.90;;;13.30;99.90;;;;;;7395610;19;20161;-74
2023/01/02 03:05:53;;;;;;;3.95;2.75;;;13.30;99.90;;;;;;7394232;19;20168;-75
2023/01/02 03:08:27;;;;;;;2.58;1.88;;;13.40;99.90;;;;;;7393420;19;20875;-74
2023/01/02 03:10:59;;;;;;;3.85;2.78;;;13.40;99.90;;;;;;7394821;19;20150;-75
2023/01/02 03:13:30;;;;;;;3.80;2.38;;;13.40;99.90;;;;;;7392114;19;20167;-75
2023/01/02 03:16:08;;;;;;;2.80;2.00;;;13.50;99.90;;;;;;7394208;19;20143;-74
2023/01/02 03:18:41;;;;;;;3.55;2.00;;;13.40;99.90;;;;;;7394621;19;20566;-75
2023/01/02 03:21:11;;;;;;;2.55;1.80;;;13.30;99.90;;;;;;7393894;19;20139;-76
2023/01/02 03:23:48;;;;;;;3.08;1.40;;;13.30;99.90;;;;;;7394108;19;20134;-76
2023/01/02 03:26:17;;;;;;;1.23;1.10;;;13.30;99.90;;;;;;7396223;19;20145;-74
2023/01/02 03:28:47;;;;;;;1.77;1.08;;;13.40;99.90;;;;;;7394316;19;20138;-75
2023/01/02 03:31:17;;;;;;;1.60;0.98;;;13.40;99.90;;;;;;7392655;19;20146;-75
2023/01/02 03:33:58;;;;;;;3.15;0.90;;;13.60;99.90;;;;;;7393189;19;20131;-75
2023/01/02 03:36:29;;;;;;;2.25;1.02;;;13.70;99.90;;;;;;7393599;19;20134;-75
2023/01/02 03:39:08;;;;;;;1.65;0.80;;;13.80;99.90;;;;;;7393525;19;20906;-75
2023/01/02 03:41:49;;;;;;;1.58;0.90;;;13.90;99.90;;;;;;7391489;19;20171;-75
2023/01/02 03:44:16;;;;;;;0.93;0.75;;;14.00;99.90;;;;;;7391249;19;20146;-75
2023/01/02 03:47:00;;;;;;;2.05;0.95;;;14.10;99.90;;;;;;7392013;19;20158;-77
2023/01/02 03:49:31;;;;;;;2.45;1.15;;;14.20;99.90;;;;;;7391448;19;20155;-76
2023/01/02 03:51:57;;;;;;;2.05;0.90;;;14.20;99.90;;;;;;7392984;19;20587;-74
2023/01/02 03:54:25;;;;;;;1.08;0.70;;;14.20;99.90;;;;;;7386006;19;20628;-75
2023/01/02 03:57:18;;;;;;;1.23;0.80;;;14.20;99.90;;;;;;7392067;19;20134;-75
2023/01/02 03:59:46;;;;;;;2.35;0.80;;;14.20;99.90;;;;;;7392064;19;20134;-74
2023/01/02 04:02:17;;;;;;;2.70;1.00;;;14.10;99.90;;;;;;7391247;19;20138;-75
2023/01/02 04:04:52;;;;;;;5.95;1.17;;;14.20;99.90;;;;;;7389430;19;20146;-75
2023/01/02 04:07:58;;;;;;;7.53;1.00;;;14.20;99.90;;;;;;7391806;19;20126;-74
2023/01/02 04:10:26;;;;;;;2.50;0.90;;;14.20;99.90;;;;;;7385092;19;20142;-75
2023/01/02 04:12:54;;;;;;;1.25;1.10;;;14.20;99.90;;;;;;7386633;19;20483;-75
2023/01/02 04:15:23;;;;;;;1.88;1.02;;;14.10;99.90;;;;;;7390853;19;20138;-74
2023/01/02 04:17:55;;;;;;;1.77;1.00;;;14.10;99.90;;;;;;7388776;19;20150;-75
2023/01/02 04:20:27;;;;;;;3.47;0.88;;;14.20;99.90;;;;;;7390438;19;20134;-74
2023/01/02 04:23:12;;;;;;;2.80;0.82;;;14.20;99.90;;;;;;7389546;19;20507;-76
2023/01/02 04:25:43;;;;;;;1.95;0.98;;;14.20;99.90;;;;;;7389476;19;20476;-74
2023/01/02 04:28:27;;;;;;;1.30;0.90;;;14.10;99.90;;;;;;7391855;19;20138;-75
2023/01/02 04:31:16;;;;;;;2.63;0.95;;;14.10;99.90;;;;;;7389930;19;20131;-76
2023/01/02 04:33:58;;;;;;;1.60;0.90;;;14.10;99.90;;;;;;7387078;19;20163;-75
2023/01/02 04:36:24;;;;;;;1.35;0.90;;;14.10;99.90;;;;;;7387871;19;20138;-75
2023/01/02 04:38:50;;;;;;;2.25;1.02;;;14.20;99.90;;;;;;7388239;19;20146;-75
2023/01/02 04:41:25;;;;;;;1.92;1.05;;;14.20;99.90;;;;;;7390440;19;20221;-75
2023/01/02 04:43:55;;;;;;;1.02;0.88;;;14.20;99.90;;;;;;7387445;19;20131;-75
2023/01/02 04:46:22;;;;;;;1.85;1.13;;;14.20;99.90;;;;;;7389509;19;20157;-75
2023/01/02 04:48:48;;;;;;;3.28;0.95;;;14.20;99.90;;;;;;7389679;19;20141;-76
2023/01/02 04:51:14;;;;;;;3.55;1.05;;;14.20;99.90;;;;;;7389177;19;20150;-75
2023/01/02 04:53:40;;;;;;;2.08;0.93;;;14.20;99.90;;;;;;7385359;19;20230;-74
2023/01/02 04:56:06;;;;;;;2.15;0.95;;;14.10;99.90;;;;;;7388695;19;20626;-75
2023/01/02 04:58:32;;;;;;;2.75;1.15;;;14.20;99.90;;;;;;7389517;19;20225;-75
2023/01/02 05:00:58;;;;;;;1.90;1.00;;;14.10;99.90;;;;;;7392560;19;20229;-73
2023/01/02 05:03:24;;;;;;;1.60;1.10;;;14.20;99.90;;;;;;7393831;19;20259;-75
2023/01/02 05:05:57;;;;;;;2.20;1.20;;;14.30;99.90;;;;;;7396337;19;20143;-74
2023/01/02 05:08:23;;;;;;;1.45;0.90;;;14.20;99.90;;;;;;7395006;19;20131;-75
2023/01/02 05:10:49;;;;;;;3.28;1.15;;;14.30;99.90;;;;;;7393623;19;20164;-75
2023/01/02 05:13:14;;;;;;;2.90;1.30;;;14.20;99.90;;;;;;7391854;19;20147;-75
2023/01/02 05:15:40;;;;;;;1.73;0.90;;;14.20;99.90;;;;;;7393268;19;20201;-75
2023/01/02 05:18:06;;;;;;;4.15;1.33;;;14.30;99.90;;;;;;7395780;19;20141;-75
2023/01/02 05:20:31;;;;;;;2.25;1.10;;;14.20;99.90;;;;;;7393795;19;20178;-76
2023/01/02 05:25:41;;;;;;;3.53;1.00;;;14.20;99.90;;;;;;7395015;19;20614;-74
2023/01/02 05:28:07;;;;;;;2.10;0.73;;;14.20;99.90;;;;;;7395223;19;20161;-76
2023/01/02 05:30:33;;;;;;;3.47;1.08;;;14.10;99.90;;;;;;7395020;19;20142;-74
2023/01/02 05:32:59;;;;;;;1.35;0.93;;;14.30;99.90;;;;;;7391863;19;20154;-75
2023/01/02 05:35:24;;;;;;;2.03;1.60;;;14.00;99.90;;;;;;7393527;19;20143;-75
2023/01/02 05:37:50;;;;;;;3.45;1.25;;;14.00;99.90;;;;;;7394462;19;20157;-75
2023/01/02 05:40:16;;;;;;;2.80;1.63;;;14.00;99.90;;;;;;7394695;19;20135;-75
2023/01/02 05:42:42;;;;;;;5.20;1.50;;;14.10;99.90;;;;;;7395536;19;20138;-76
2023/01/02 05:45:08;;;;;;;2.55;1.58;;;14.20;99.90;;;;;;7393858;19;20139;-75
2023/01/02 05:47:33;;;;;;;3.05;1.70;;;14.10;99.90;;;;;;7391981;19;20134;-75
2023/01/02 05:49:59;;;;;;;3.30;1.63;;;14.00;99.90;;;;;;7393910;19;20727;-75
2023/01/02 05:52:25;;;;;;;5.22;2.08;;;13.90;99.90;;;;;;7393301;19;20579;-75
2023/01/02 05:54:50;;;;;;;4.22;1.80;;;13.90;99.90;;;;;;7391774;19;20579;-75
2023/01/02 05:57:16;;;;;;;3.50;2.40;;;13.90;99.90;;;;;;7395624;19;20134;-76
2023/01/02 05:59:42;;;;;;;3.55;2.10;;;13.80;99.90;;;;;;7393323;19;20131;-74
2023/01/02 06:02:09;;;;;;;3.00;2.10;;;13.80;99.90;;;;;;7393300;19;20135;-76
2023/01/02 06:04:35;;;;;;;5.32;2.50;;;13.80;99.90;;;;;;7390114;19;20186;-76
2023/01/02 06:07:00;;;;;;;3.25;2.20;;;13.80;99.90;;;;;;7394923;19;20478;-75
2023/01/02 06:09:26;;;;;;;3.90;2.17;;;13.70;99.90;;;;;;7393496;19;20161;-75
2023/01/02 06:11:52;;;;;;;4.03;2.05;;;13.60;99.90;;;;;;7391040;19;20572;-76
2023/01/02 06:14:17;;;;;;;3.00;2.00;;;13.50;99.90;;;;;;7390590;19;20146;-75
2023/01/02 06:16:43;;;;;;;3.17;1.95;;;13.40;99.90;;;;;;7394384;19;20139;-75
2023/01/02 06:19:09;;;;;;;4.13;1.70;;;13.20;99.90;;;;;;7395337;19;20142;-76
2023/01/02 06:21:35;;;;;;;3.17;1.70;;;13.20;99.90;;;;;;7395117;19;20668;-77
2023/01/02 06:24:00;;;;;;;3.45;1.63;;;13.10;99.90;;;;;;7393459;19;20145;-76
2023/01/02 06:26:27;;;;;;;4.00;1.95;;;13.30;99.90;;;;;;7393235;19;20665;-75
2023/01/02 06:28:55;;;;;;;5.57;2.20;;;13.50;99.90;;;;;;7392374;19;20186;-76
2023/01/02 06:31:25;;;;;;;9.43;2.22;;;13.60;99.90;;;;;;7392003;19;20157;-77
2023/01/02 06:33:59;;;;;;;3.30;2.30;;;13.40;99.90;;;;;;7389114;19;20147;-76
2023/01/02 06:36:28;;;;;;;6.47;2.40;;;13.30;99.90;;;;;;7391900;19;20631;-75
2023/01/02 06:38:56;;;;;;;4.10;3.00;;;13.30;99.90;;;;;;7392525;19;20158;-75
2023/01/02 06:41:21;;;;;;;4.63;2.23;;;13.20;99.90;;;;;;7392453;19;20631;-76
2023/01/02 06:43:49;;;;;;;3.50;2.30;;;13.10;99.90;;;;;;7390364;19;20216;-76
2023/01/02 06:46:20;;;;;;;3.35;2.28;;;13.10;99.90;;;;;;7392201;19;20623;-75
2023/01/02 06:48:46;;;;;;;3.93;2.10;;;13.00;99.90;;;;;;7392948;19;20206;-75
2023/01/02 06:51:14;;;;;;;5.57;2.38;;;12.90;99.90;;;;;;7392842;19;20146;-76
2023/01/02 06:53:41;;;;;;;2.77;2.10;;;13.00;99.90;;;;;;7389489;19;20139;-76
2023/01/02 06:56:08;;;;;;;3.63;2.00;;;13.00;99.90;;;;;;7394153;19;20139;-76
2023/01/02 06:58:35;;;;;;;5.37;2.30;;;13.00;99.90;;;;;;7392860;19;20166;-76
2023/01/02 07:01:03;;;;;;;5.07;2.50;;;13.00;99.90;;;;;;7392478;19;20135;-75
2023/01/02 07:03:29;;;;;;;6.67;2.57;;;13.00;99.90;;;;;;7392814;19;20151;-75
2023/01/02 07:06:00;;;;;;;5.20;2.33;;;13.00;99.90;;;;;;7395169;19;20139;-75
2023/01/02 07:08:25;;;;;;;3.40;2.30;;;12.90;99.90;;;;;;7392107;19;20155;-76
2023/01/02 07:10:51;;;;;;;4.03;2.20;;;12.90;99.90;;;;;;7393679;19;20139;-75
2023/01/02 07:13:17;;;;;;;6.63;1.83;;;12.80;99.90;;;;;;7390137;19;20149;-76
2023/01/02 07:15:42;;;;;;;3.60;2.08;;;12.70;99.90;;;;;;7391776;19;20218;-76
2023/01/02 07:18:08;;;;;;;6.05;2.30;;;12.80;99.90;;;;;;7391366;19;20135;-76
2023/01/02 07:20:34;;;;;;;7.20;2.93;;;13.00;99.90;;;;;;7391186;19;20150;-76
2023/01/02 07:22:59;;;;;;;4.17;2.07;;;13.20;99.90;;;;;;7387758;19;20475;-76
2023/01/02 07:25:25;;;;;;;3.50;2.05;;;13.20;99.90;;;;;;7389229;19;20158;-74
2023/01/02 07:27:51;;;;;;;5.20;2.30;;;13.10;99.90;;;;;;7390396;19;20206;-76
2023/01/02 07:30:17;;;;;;;4.00;2.40;;;12.90;99.90;;;;;;7389083;19;20166;-75
2023/01/02 07:32:42;;;;;;;5.00;2.38;;;12.90;99.90;;;;;;7389619;19;20135;-76
2023/01/02 07:35:09;;;;;;;9.13;2.28;;;12.90;99.90;;;;;;7387783;19;20152;-76
2023/01/02 07:37:35;;;;;;;8.30;2.08;;;12.90;99.90;;;;;;7389827;19;20139;-75
2023/01/02 07:40:00;;;;;;;6.72;1.95;;;12.80;99.90;;;;;;7389940;19;20650;-75
2023/01/02 07:42:26;;;;;;;7.90;2.10;;;12.80;99.90;;;;;;7389968;19;20456;-75
2023/01/02 07:44:52;;;;;;;5.30;2.10;;;12.90;99.90;;;;;;7388439;19;20139;-75
2023/01/02 07:47:18;;;;;;;4.60;2.25;;;13.10;99.90;;;;;;7389998;19;20274;-75
2023/01/02 07:49:44;;;;;;;5.70;2.20;;;13.20;99.90;;;;;;7388567;19;20165;-75
2023/01/02 07:52:10;;;;;;;5.28;2.80;;;13.30;99.90;;;;;;7391580;19;20138;-76
2023/01/02 07:54:36;;;;;;;7.43;2.50;;;13.20;99.90;;;;;;7386611;19;20148;-76
2023/01/02 07:57:03;;;;;;;4.25;2.05;;;13.30;99.90;;;;;;7390837;19;20163;-76
2023/01/02 07:59:28;;;;;;;4.60;2.80;;;13.00;99.90;;;;;;7388748;19;20151;-76
2023/01/02 08:01:54;;;;;;;6.95;2.60;;;13.10;99.90;;;;;;7386813;19;20153;-75
2023/01/02 08:04:20;;;;;;;4.95;2.78;;;13.10;99.90;;;;;;7386517;19;20147;-75
2023/01/02 08:06:45;;;;;;;5.97;2.80;;;13.10;99.90;;;;;;7389544;19;20150;-76
2023/01/02 08:09:11;;;;;;;6.40;3.20;;;13.00;99.90;;;;;;7389467;19;20543;-75
2023/01/02 08:11:37;;;;;;;5.47;2.92;;;12.90;99.90;;;;;;7389994;19;20153;-75
2023/01/02 08:14:03;;;;;;;4.70;2.83;;;12.90;99.90;;;;;;7387891;19;20478;-75
2023/01/02 08:16:28;;;;;;;6.30;3.03;;;12.90;99.90;;;;;;7388068;19;20130;-74
2023/01/02 08:18:55;;;;;;;5.60;3.03;;;12.90;99.90;;;;;;7389536;19;20154;-76
2023/01/02 08:21:23;;;;;;;7.47;4.40;;;12.90;99.90;;;;;;7387260;19;20474;-75
2023/01/02 08:23:48;;;;;;;7.40;4.05;;;12.90;99.90;;;;;;7387968;19;20514;-75
2023/01/02 08:26:14;;;;;;;9.07;4.00;;;12.90;99.90;;;;;;7387965;19;20138;-76
2023/01/02 08:28:40;;;;;;;7.07;3.77;;;13.00;99.90;;;;;;7386230;19;20134;-75
2023/01/02 08:31:18;;;;;;;11.93;5.33;;;12.90;99.90;;;;;;7386857;19;20515;-74
2023/01/02 08:33:45;;;;;;;12.55;4.57;;;12.90;99.90;;;;;;7384745;19;20130;-75
2023/01/02 08:36:10;;;;;;;10.73;4.95;;;12.70;99.90;;;;;;7392677;19;20147;-75
2023/01/02 08:38:36;;;;;;;11.75;5.65;;;12.80;99.90;;;;;;7395379;19;20433;-76
2023/01/02 08:41:02;;;;;;;12.57;5.03;;;12.90;99.90;;;;;;7394378;19;20156;-75
2023/01/02 08:43:28;;;;;;;7.50;3.67;;;13.00;99.90;;;;;;7394602;19;20155;-75
2023/01/02 08:45:54;;;;;;;8.60;3.43;;;13.10;99.90;;;;;;7393163;19;20611;-75
2023/01/02 08:48:20;;;;;;;8.52;4.15;;;13.10;99.90;;;;;;7395804;19;20142;-75
2023/01/02 08:50:46;;;;;;;6.82;3.90;;;13.10;99.90;;;;;;7393819;19;20158;-74
2023/01/02 08:53:12;;;;;;;10.02;3.53;;;13.10;99.90;;;;;;7393469;19;20149;-77
2023/01/02 08:55:37;;;;;;;10.07;3.85;;;13.10;99.90;;;;;;7394445;19;20214;-75
2023/01/02 08:58:03;;;;;;;6.75;3.55;;;13.00;99.90;;;;;;7395131;19;20134;-74
2023/01/02 09:00:29;;;;;;;6.78;3.30;;;13.10;99.90;;;;;;7394121;19;20499;-76
2023/01/02 09:02:55;;;;;;;7.55;3.42;;;13.30;99.90;;;;;;7390965;19;20206;-75
2023/01/02 09:05:21;;;;;;;8.15;3.58;;;13.30;99.90;;;;;;7391230;19;20218;-74
2023/01/02 09:07:47;;;;;;;6.40;3.45;;;13.40;99.90;;;;;;7394779;19;20193;-75
2023/01/02 09:10:13;;;;;;;8.23;3.80;;;13.20;99.90;;;;;;7394680;19;20150;-75
2023/01/02 09:12:38;;;;;;;6.35;3.30;;;13.20;99.90;;;;;;7393529;19;20158;-74
2023/01/02 09:15:05;;;;;;;6.63;3.50;;;13.20;99.90;;;;;;7394664;19;20139;-73
2023/01/02 09:17:30;;;;;;;6.95;3.33;;;13.30;99.90;;;;;;7395577;19;20146;-74
2023/01/02 09:19:56;;;;;;;7.60;2.97;;;13.30;99.90;;;;;;7394801;19;20206;-75
2023/01/02 09:22:22;;;;;;;5.87;3.17;;;13.20;99.90;;;;;;7396550;19;20602;-76
2023/01/02 09:24:48;;;;;;;7.63;3.13;;;13.00;99.90;;;;;;7396166;19;20559;-75
2023/01/02 09:27:13;;;;;;;6.15;3.08;;;13.10;99.90;;;;;;7390610;19;20214;-75
2023/01/02 09:29:39;;;;;;;8.25;3.50;;;13.10;99.90;;;;;;7394599;19;20154;-75
2023/01/02 09:32:05;;;;;;;7.63;3.33;;;13.20;99.90;;;;;;7392740;19;20131;-74
2023/01/02 09:34:30;;;;;;;7.50;3.40;;;13.20;99.90;;;;;;7391515;19;20474;-74
2023/01/02 09:36:56;;;;;;;6.82;3.55;;;13.20;99.90;;;;;;7393931;19;20206;-75
2023/01/02 09:39:22;;;;;;;8.77;4.22;;;13.30;99.90;;;;;;7393442;19;20150;-75
2023/01/02 09:41:53;;;;;;;7.90;3.47;;;13.30;99.90;;;;;;7397008;19;20685;-76
2023/01/02 09:44:44;;;;;;;11.00;4.38;;;13.30;99.90;;;;;;7393093;19;20157;-74
2023/01/02 09:47:09;;;;;;;6.63;3.35;;;13.10;99.90;;;;;;7395019;19;20139;-74
2023/01/02 09:49:50;;;;;;;9.23;3.85;;;13.10;99.90;;;;;;7395004;19;20147;-74
2023/01/02 09:52:29;;;;;;;10.68;4.13;;;13.20;99.90;;;;;;7394252;19;20607;-74
2023/01/02 09:54:55;;;;;;;7.22;3.85;;;13.40;99.90;;;;;;7394908;19;20168;-75
2023/01/02 09:58:06;;;;;;;8.32;4.28;;;13.50;99.90;;;;;;7393650;19;20139;-74
2023/01/02 10:00:34;;;;;;;10.52;4.00;;;13.50;99.90;;;;;;7394784;19;20150;-73
2023/01/02 10:03:25;;;;;;;9.55;4.15;;;13.40;99.90;;;;;;7392980;19;20135;-73
2023/01/02 10:06:02;;;;;;;7.38;3.63;;;13.40;99.90;;;;;;7394000;19;20149;-75
2023/01/02 10:09:03;;;;;;;9.18;3.97;;;13.50;99.90;;;;;;7394058;19;20574;-75
2023/01/02 10:11:49;;;;;;;8.82;3.78;;;13.50;99.90;;;;;;7393428;19;20205;-73
2023/01/02 10:14:57;;;;;;;7.28;3.60;;;13.60;99.90;;;;;;7391350;19;20886;-73
2023/01/02 10:17:24;;;;;;;9.35;3.80;;;13.70;99.90;;;;;;7391247;19;20067;-74
2023/01/02 10:20:07;;;;;;;7.55;3.55;;;13.70;99.90;;;;;;7393784;19;20502;-74
2023/01/02 10:22:50;;;;;;;5.25;2.60;;;13.70;99.90;;;;;;7395160;19;20146;-77
2023/01/02 10:25:35;;;;;;;4.30;2.47;;;13.80;99.90;;;;;;7395198;19;20531;-74
2023/01/02 10:28:01;;;;;;;2.05;1.30;;;13.90;99.90;;;;;;7395189;19;20210;-74
2023/01/02 10:30:32;;;;;;;4.55;1.45;;;14.10;99.90;;;;;;7394854;19;20159;-75
2023/01/02 10:33:03;;;;;;;4.00;1.50;;;14.30;99.90;;;;;;7392840;19;20134;-74
2023/01/02 10:35:33;;;;;;;5.43;1.23;;;14.50;99.90;;;;;;7394300;19;20127;-74
2023/01/02 10:37:59;;;;;;;3.85;1.50;;;14.60;99.90;;;;;;7395243;19;20130;-75
2023/01/02 10:40:25;;;;;;;3.70;1.60;;;14.80;99.90;;;;;;7393268;19;20158;-73
2023/01/02 10:42:56;;;;;;;2.53;1.23;;;14.90;99.90;;;;;;7393943;19;20511;-74
2023/01/02 10:45:22;;;;;;;4.38;1.15;;;15.10;99.90;;;;;;7393239;19;20149;-75
2023/01/02 10:47:48;;;;;;;5.63;1.50;;;15.10;99.90;;;;;;7390869;19;20119;-76
2023/01/02 10:50:21;;;;;;;6.05;1.63;;;15.20;99.90;;;;;;7391448;19;20126;-74
2023/01/02 10:52:52;;;;;;;4.90;1.77;;;15.20;99.90;;;;;;7391490;19;20130;-74
2023/01/02 10:55:33;;;;;;;3.88;1.23;;;15.40;99.90;;;;;;7392500;19;20163;-75
2023/01/02 10:58:05;;;;;;;5.43;2.75;;;15.50;99.90;;;;;;7391683;19;20135;-75
2023/01/02 11:00:34;;;;;;;8.07;2.58;;;15.50;99.90;;;;;;7394840;19;20205;-76
2023/01/02 11:03:21;;;;;;;4.93;1.63;;;15.50;99.90;;;;;;7395050;19;20183;-74
2023/01/02 11:05:52;;;;;;;3.63;1.80;;;15.60;99.90;;;;;;7395065;19;20555;-75
2023/01/02 11:08:21;;;;;;;3.97;1.67;;;15.60;99.90;;;;;;7394595;19;20122;-75
2023/01/02 11:10:48;;;;;;;6.30;1.65;;;15.60;99.90;;;;;;7391153;19;20286;-73
2023/01/02 11:13:20;;;;;;;4.03;1.40;;;15.60;99.90;;;;;;7390664;19;20134;-74
2023/01/02 11:16:01;;;;;;;3.17;1.73;;;15.70;99.90;;;;;;7393506;19;20138;-75
2023/01/02 11:18:30;;;;;;;3.25;1.63;;;15.80;99.90;;;;;;7393870;19;20217;-74
2023/01/02 11:21:03;;;;;;;3.65;1.50;;;15.90;99.90;;;;;;7391663;19;20135;-75
2023/01/02 11:23:49;;;;;;;4.40;1.48;;;16.00;99.90;;;;;;7392359;19;20170;-75
2023/01/02 11:26:21;;;;;;;4.72;1.30;;;16.10;99.90;;;;;;7389625;19;20143;-74
2023/01/02 11:28:49;;;;;;;2.45;1.27;;;16.30;99.90;;;;;;7391038;19;20135;-75
2023/01/02 11:31:16;;;;;;;3.65;1.75;;;16.40;99.90;;;;;;7392628;19;20137;-75
2023/01/02 11:33:44;;;;;;;6.05;3.13;;;16.40;99.90;;;;;;7392794;19;20139;-75
2023/01/02 11:36:10;;;;;;;6.20;1.60;;;16.50;99.90;;;;;;7392948;19;20150;-76
2023/01/02 11:38:47;;;;;;;3.60;1.40;;;16.50;99.90;;;;;;7390837;19;20139;-75
2023/01/02 11:44:13;;;;;;;3.47;1.55;;;16.50;99.90;;;;;;7383260;19;20138;-76
2023/01/02 11:46:39;;;;;;;3.85;1.50;;;16.60;99.90;;;;;;7386756;19;20146;-76
2023/01/02 11:49:28;;;;;;;6.97;1.60;;;16.70;99.90;;;;;;7393803;19;20184;-75
2023/01/02 11:52:00;;;;;;;4.80;1.50;;;16.80;99.90;;;;;;7393867;19;20138;-76
2023/01/02 11:54:51;;;;;;;3.72;1.60;;;16.90;99.90;;;;;;7388266;19;20150;-76
2023/01/02 11:57:46;;;;;;;4.70;1.48;;;16.80;99.90;;;;;;7392584;19;20134;-74
2023/01/02 12:00:15;;;;;;;6.55;1.80;;;16.90;99.90;;;;;;7391562;19;20174;-73
2023/01/02 12:02:44;;;;;;;3.65;1.77;;;16.70;99.90;;;;;;7390408;19;20142;-74
2023/01/02 12:05:35;;;;;;;3.53;1.38;;;16.70;99.90;;;;;;7387446;19;20151;-75
2023/01/02 12:08:12;;;;;;;4.13;2.22;;;16.60;99.90;;;;;;7390693;19;20135;-74
2023/01/02 12:10:50;;;;;;;5.30;1.80;;;16.60;99.90;;;;;;7386056;19;20153;-75
2023/01/02 12:13:23;;;;;;;6.38;1.73;;;16.60;99.90;;;;;;7390226;19;20902;-75
2023/01/02 12:16:00;;;;;;;5.82;1.60;;;16.60;99.90;;;;;;7390201;19;20147;-74
2023/01/02 12:18:38;;;;;;;8.85;2.00;;;16.50;99.90;;;;;;7391626;19;20129;-75
2023/01/02 12:21:24;;;;;;;7.88;1.40;;;16.50;99.90;;;;;;7393015;19;20141;-74
2023/01/02 12:23:52;;;;;;;4.50;1.63;;;16.60;99.90;;;;;;7390022;19;20134;-75
2023/01/02 12:26:26;;;;;;;4.47;1.40;;;16.60;99.90;;;;;;7389295;19;20173;-73
2023/01/02 12:29:14;;;;;;;3.97;1.45;;;16.60;99.90;;;;;;7391228;19;20134;-76
2023/01/02 12:32:06;;;;;;;4.30;1.70;;;16.60;99.90;;;;;;7390988;19;20127;-76
2023/01/02 12:35:06;;;;;;;3.95;1.92;;;16.60;99.90;;;;;;7388072;19;20151;-74
2023/01/02 12:37:44;;;;;;;4.55;1.98;;;16.60;99.90;;;;;;7391183;19;20575;-77
2023/01/02 12:40:34;;;;;;;6.03;1.40;;;16.60;99.90;;;;;;7392302;19;20150;-77
2023/01/02 12:42:59;;;;;;;3.13;1.35;;;16.50;99.90;;;;;;7390862;19;20474;-76
2023/01/02 12:45:32;;;;;;;4.68;1.52;;;16.60;99.90;;;;;;7389106;19;20150;-77
2023/01/02 12:48:00;;;;;;;8.35;1.77;;;16.50;99.90;;;;;;7386400;19;20148;-76
2023/01/02 12:50:42;;;;;;;5.80;1.58;;;16.60;99.90;;;;;;7389460;19;20230;-75
2023/01/02 12:53:36;;;;;;;4.70;1.35;;;16.60;99.90;;;;;;7389466;19;20135;-76
2023/01/02 12:56:29;;;;;;;3.47;1.80;;;16.60;99.90;;;;;;7391191;19;20573;-76
2023/01/02 12:59:36;;;;;;;3.58;1.83;;;16.70;99.90;;;;;;7393794;19;20135;-77
2023/01/02 13:02:34;;;;;;;5.28;1.65;;;16.70;99.90;;;;;;7390891;19;20202;-76
2023/01/02 13:05:07;;;;;;;5.53;1.45;;;16.80;99.90;;;;;;7382204;19;20246;-77
2023/01/02 13:07:49;;;;;;;4.57;1.40;;;16.80;99.90;;;;;;7390469;19;20119;-77
2023/01/02 13:10:27;;;;;;;6.22;1.67;;;16.80;99.90;;;;;;7390116;19;20147;-76